Thomasville, GA

10:58 AM EDT on August 22, 2014 (GMT -0400)
Glen Arven CC | Change Station
CLOSE
Current Station
Personal Weather Station
Location: Glen Arven CC, GA
Elevation: 276 ft
Nearby Weather Stations
Active Advisory: Heat Advisory Active Notice: Record Report, Local Storm Report

Elev 276 ft 30.82 °N, 83.96 °W | Updated 6 seconds ago

Clear
Clear
106.4 °F
Feels Like 129 °F
N
2.7
Wind Variable Wind from NNW
Gusts 2.7 mph

Today
High -- | Low -- °F
--% Chance of Precip.
Yesterday
High -- | Low -- °F
Precip. -- in
7:06 AM 8:10 PM
Waning Crescent, 8% visible
Pressure 30.12 in
Visibility 10.0 miles
Clouds Clear
Heat Index 129 °F
Dew Point 79 °F
Humidity 43%
Rainfall 0.00 in
Snow Depth Not available.
UV 7 out of 12
Pollen 8.20 out of 12
Air Quality Not available.
Flu Activity Not available.
METAR KTVI 221435Z AUTO 32004KT 10SM CLR 31/23 A3012 RMK AO2

More Conditions Fewer Conditions

Pressure 30.12 in
Visibility 10.0 miles
Clouds Clear
Heat Index 129 °F
Dew Point 79 °F
Humidity 43%
Rainfall 0.00 in
Snow Depth Not available.
UV 7 out of 12
Pollen 8.20 out of 12
Air Quality Not available.
Flu Activity Not available.
METAR KTVI 221435Z AUTO 32004KT 10SM CLR 31/23 A3012 RMK AO2

More Conditions Fewer Conditions

10-Day Weather Forecast

Almanac

Astronomy

Aug. 22, 2014 Rise Set
Actual Time 7:06 AM EDT 8:10 PM EDT
Civil Twilight 6:41 AM EDT 8:35 PM EDT
Nautical Twilight 6:11 AM EDT 9:05 PM EDT
Astronomical Twilight 5:40 AM EDT 9:35 PM EDT
Moon 4:32 AM EDT 6:14 PM EDT
Length of Visible Light 13h 54m
Length of Day
13h 04m
Tomorrow will be 1m 43s shorter.
Waning Crescent, 8% of the Moon is Illuminated
Today
Waning Crescent
Aug 25
New
Sep 2
First Quarter
Sep 8
Full
Sep 15
Last Quarter

Today's Extremes

State Highs State Lows

Community

WunderPhotos

Upload Photos

1,746,181 photos uploaded!

WunderBlogs® & News

Nearby

Snow Depth

Station Depth Elevation
No new snow has been reported.

Earthquake Activity

City Distance Mag. Time & Date
No recent earthquake activity has been reported nearby.
Minimum magnitude displayed is 2.5.

Coastal Water Temperatures

Place Temperature
No Stations Reporting

Nearby Weather Stations